N920LG MWCR-MKJP
Flight info
| Callsign | N920LG |
|---|---|
| Flight time | 1h 21m |
| Altitude | 19000 |
| Route | NALRO2 NALRO UG633 KEMBO |
| Aircraft | BT36/L-BDFGLORY/S |
Departure
| Time | 2026-04-22 01:11 |
|---|---|
| Airport | Owen Roberts International Airport (MWCR) |
Arrival
| Time | 2026-04-22 02:32 |
|---|---|
| Airport | Norman Manley International Airport (MKJP) |
| Time | Latitude | Longitude | Altitude | Speed | Heading |
|---|---|---|---|---|---|
| 2026-04-22 00:53 | 19.29261 | -81.36380 | 13 ft | 0 kts | 77° |
| 2026-04-22 01:08 | 19.29264 | -81.36364 | 13 ft | 7 kts | 77° |
| 2026-04-22 01:08 | 19.29236 | -81.36311 | 13 ft | 7 kts | 168° |
| 2026-04-22 01:08 | 19.29235 | -81.36310 | 13 ft | 0 kts | 168° |
| 2026-04-22 01:09 | 19.29232 | -81.36310 | 13 ft | 3 kts | 168° |
| 2026-04-22 01:09 | 19.29172 | -81.36298 | 12 ft | 14 kts | 188° |
| 2026-04-22 01:09 | 19.29132 | -81.36412 | 12 ft | 22 kts | 252° |
| 2026-04-22 01:09 | 19.29089 | -81.36589 | 11 ft | 28 kts | 254° |
| 2026-04-22 01:10 | 19.29053 | -81.36786 | 12 ft | 26 kts | 261° |
| 2026-04-22 01:10 | 19.29005 | -81.36929 | 12 ft | 11 kts | 185° |
| 2026-04-22 01:10 | 19.29014 | -81.36869 | 12 ft | 12 kts | 62° |
| 2026-04-22 01:10 | 19.29054 | -81.36751 | 11 ft | 29 kts | 73° |
| 2026-04-22 01:11 | 19.29144 | -81.36349 | 14 ft | 86 kts | 78° |
| 2026-04-22 01:11 | 19.29313 | -81.35619 | 169 ft | 114 kts | 75° |
| 2026-04-22 01:11 | 19.29509 | -81.34800 | 629 ft | 112 kts | 74° |
| 2026-04-22 01:11 | 19.29676 | -81.34027 | 1132 ft | 107 kts | 76° |
| 2026-04-22 01:12 | 19.29835 | -81.33280 | 1579 ft | 105 kts | 76° |
| 2026-04-22 01:12 | 19.29986 | -81.32519 | 1966 ft | 101 kts | 75° |
| 2026-04-22 01:12 | 19.30193 | -81.31811 | 2313 ft | 101 kts | 71° |
| 2026-04-22 01:12 | 19.30208 | -81.31065 | 2642 ft | 107 kts | 96° |
| 2026-04-22 01:13 | 19.29899 | -81.30349 | 3013 ft | 112 kts | 125° |
| 2026-04-22 01:13 | 19.29337 | -81.29728 | 3320 ft | 120 kts | 129° |
| 2026-04-22 01:13 | 19.28771 | -81.29106 | 3743 ft | 113 kts | 127° |
| 2026-04-22 01:13 | 19.28225 | -81.28515 | 4122 ft | 111 kts | 127° |
| 2026-04-22 01:14 | 19.27674 | -81.27944 | 4498 ft | 112 kts | 131° |
| 2026-04-22 01:14 | 19.27092 | -81.27378 | 4791 ft | 119 kts | 131° |
| 2026-04-22 01:14 | 19.26478 | -81.26756 | 5068 ft | 125 kts | 128° |
| 2026-04-22 01:14 | 19.25842 | -81.26099 | 5346 ft | 131 kts | 133° |
| 2026-04-22 01:15 | 19.25109 | -81.25503 | 5626 ft | 134 kts | 137° |
| 2026-04-22 01:15 | 19.24354 | -81.24905 | 5905 ft | 136 kts | 136° |
| 2026-04-22 01:15 | 19.23642 | -81.24249 | 6180 ft | 134 kts | 118° |
| 2026-04-22 01:15 | 19.23370 | -81.23342 | 6463 ft | 129 kts | 94° |
| 2026-04-22 01:16 | 19.23249 | -81.22398 | 6735 ft | 131 kts | 93° |
| 2026-04-22 01:16 | 19.23115 | -81.21449 | 7015 ft | 134 kts | 95° |
| 2026-04-22 01:16 | 19.22956 | -81.20455 | 7295 ft | 140 kts | 96° |
| 2026-04-22 01:16 | 19.22770 | -81.19433 | 7577 ft | 143 kts | 97° |
| 2026-04-22 01:17 | 19.22571 | -81.18391 | 7860 ft | 146 kts | 97° |
| 2026-04-22 01:17 | 19.22370 | -81.17360 | 8136 ft | 148 kts | 97° |
| 2026-04-22 01:17 | 19.22161 | -81.16289 | 8416 ft | 150 kts | 97° |
| 2026-04-22 01:17 | 19.21954 | -81.15236 | 8686 ft | 152 kts | 97° |
| 2026-04-22 01:18 | 19.21730 | -81.14096 | 8973 ft | 156 kts | 97° |
| 2026-04-22 01:18 | 19.21519 | -81.13012 | 9240 ft | 159 kts | 98° |
| 2026-04-22 01:18 | 19.21292 | -81.11862 | 9513 ft | 161 kts | 98° |
| 2026-04-22 01:18 | 19.21065 | -81.10703 | 9787 ft | 161 kts | 98° |
| 2026-04-22 01:19 | 19.20841 | -81.09569 | 10060 ft | 160 kts | 98° |
| 2026-04-22 01:19 | 19.20613 | -81.08413 | 10327 ft | 161 kts | 98° |
| 2026-04-22 01:19 | 19.20385 | -81.07256 | 10599 ft | 161 kts | 98° |
| 2026-04-22 01:19 | 19.20153 | -81.06089 | 10872 ft | 162 kts | 99° |
| 2026-04-22 01:20 | 19.19922 | -81.04917 | 11145 ft | 163 kts | 99° |
| 2026-04-22 01:20 | 19.19689 | -81.03737 | 11420 ft | 165 kts | 99° |
| 2026-04-22 01:20 | 19.19454 | -81.02548 | 11691 ft | 165 kts | 99° |
| 2026-04-22 01:20 | 19.19222 | -81.01378 | 11960 ft | 165 kts | 99° |
| 2026-04-22 01:21 | 19.18988 | -81.00190 | 12232 ft | 165 kts | 100° |
| 2026-04-22 01:21 | 19.18753 | -80.98996 | 12505 ft | 166 kts | 100° |
| 2026-04-22 01:21 | 19.18517 | -80.97800 | 12778 ft | 166 kts | 100° |
| 2026-04-22 01:21 | 19.18279 | -80.96602 | 13052 ft | 167 kts | 100° |
| 2026-04-22 01:22 | 19.18041 | -80.95398 | 13325 ft | 168 kts | 100° |
| 2026-04-22 01:22 | 19.17802 | -80.94188 | 13599 ft | 168 kts | 100° |
| 2026-04-22 01:22 | 19.17563 | -80.92974 | 13873 ft | 169 kts | 100° |
| 2026-04-22 01:22 | 19.17324 | -80.91773 | 14143 ft | 170 kts | 99° |
| 2026-04-22 01:23 | 19.17081 | -80.90550 | 14416 ft | 170 kts | 100° |
| 2026-04-22 01:23 | 19.16837 | -80.89322 | 14690 ft | 171 kts | 100° |
| 2026-04-22 01:23 | 19.16593 | -80.88087 | 14964 ft | 172 kts | 100° |
| 2026-04-22 01:23 | 19.16348 | -80.86849 | 15238 ft | 172 kts | 100° |
| 2026-04-22 01:24 | 19.16100 | -80.85606 | 15512 ft | 173 kts | 100° |
| 2026-04-22 01:24 | 19.15852 | -80.84359 | 15786 ft | 174 kts | 100° |
| 2026-04-22 01:24 | 19.15604 | -80.83109 | 16060 ft | 174 kts | 100° |
| 2026-04-22 01:24 | 19.15357 | -80.81870 | 16329 ft | 175 kts | 100° |
| 2026-04-22 01:25 | 19.15108 | -80.80612 | 16603 ft | 175 kts | 100° |
| 2026-04-22 01:25 | 19.14857 | -80.79345 | 16872 ft | 176 kts | 100° |
| 2026-04-22 01:25 | 19.14605 | -80.78073 | 17151 ft | 177 kts | 100° |
| 2026-04-22 01:25 | 19.14352 | -80.76799 | 17430 ft | 177 kts | 100° |
| 2026-04-22 01:26 | 19.14097 | -80.75524 | 17697 ft | 177 kts | 100° |
| 2026-04-22 01:26 | 19.13843 | -80.74245 | 17970 ft | 178 kts | 100° |
| 2026-04-22 01:26 | 19.13588 | -80.72963 | 18242 ft | 178 kts | 100° |
| 2026-04-22 01:26 | 19.13333 | -80.71680 | 18515 ft | 178 kts | 100° |
| 2026-04-22 01:27 | 19.13082 | -80.70416 | 18783 ft | 178 kts | 100° |
| 2026-04-22 01:27 | 19.12826 | -80.69129 | 18995 ft | 182 kts | 100° |
| 2026-04-22 01:27 | 19.12553 | -80.67762 | 19008 ft | 197 kts | 100° |
| 2026-04-22 01:27 | 19.12260 | -80.66304 | 19012 ft | 208 kts | 100° |
| 2026-04-22 01:28 | 19.11955 | -80.64780 | 19010 ft | 216 kts | 100° |
| 2026-04-22 01:28 | 19.11643 | -80.63204 | 19010 ft | 222 kts | 100° |
| 2026-04-22 01:28 | 19.11321 | -80.61596 | 19010 ft | 225 kts | 101° |
| 2026-04-22 01:28 | 19.10996 | -80.59966 | 19011 ft | 228 kts | 100° |
| 2026-04-22 01:29 | 19.10672 | -80.58342 | 19009 ft | 230 kts | 101° |
| 2026-04-22 01:29 | 19.10341 | -80.56687 | 19010 ft | 231 kts | 101° |
| 2026-04-22 01:29 | 19.10009 | -80.55023 | 19010 ft | 232 kts | 101° |
| 2026-04-22 01:29 | 19.09675 | -80.53356 | 19010 ft | 232 kts | 101° |
| 2026-04-22 01:30 | 19.09340 | -80.51682 | 19009 ft | 233 kts | 101° |
| 2026-04-22 01:30 | 19.09005 | -80.50007 | 19010 ft | 233 kts | 101° |
| 2026-04-22 01:30 | 19.08669 | -80.48329 | 19009 ft | 233 kts | 101° |
| 2026-04-22 01:30 | 19.08331 | -80.46651 | 19009 ft | 233 kts | 101° |
| 2026-04-22 01:31 | 19.07995 | -80.44972 | 19009 ft | 234 kts | 101° |
| 2026-04-22 01:31 | 19.07666 | -80.43335 | 19009 ft | 233 kts | 101° |
| 2026-04-22 01:31 | 19.07334 | -80.41678 | 19009 ft | 233 kts | 101° |
| 2026-04-22 01:31 | 19.06996 | -80.40005 | 19009 ft | 231 kts | 101° |
| 2026-04-22 01:32 | 19.06676 | -80.38416 | 19005 ft | 228 kts | 101° |
| 2026-04-22 01:32 | 19.06347 | -80.36779 | 19002 ft | 227 kts | 101° |
| 2026-04-22 01:32 | 19.06024 | -80.35175 | 19001 ft | 227 kts | 101° |
| 2026-04-22 01:32 | 19.05696 | -80.33544 | 19000 ft | 227 kts | 101° |
| 2026-04-22 01:33 | 19.05367 | -80.31912 | 18999 ft | 227 kts | 101° |
| 2026-04-22 01:33 | 19.05038 | -80.30279 | 18999 ft | 227 kts | 101° |
| 2026-04-22 01:33 | 19.04714 | -80.28669 | 18999 ft | 227 kts | 101° |
| 2026-04-22 01:33 | 19.04385 | -80.27036 | 18999 ft | 227 kts | 101° |
| 2026-04-22 01:34 | 19.04056 | -80.25405 | 18999 ft | 227 kts | 101° |
| 2026-04-22 01:34 | 19.03727 | -80.23772 | 18999 ft | 227 kts | 101° |
| 2026-04-22 01:34 | 19.03398 | -80.22142 | 18999 ft | 227 kts | 101° |
| 2026-04-22 01:34 | 19.03067 | -80.20512 | 18999 ft | 227 kts | 101° |
| 2026-04-22 01:35 | 19.02725 | -80.18885 | 18999 ft | 227 kts | 102° |
| 2026-04-22 01:35 | 19.02362 | -80.17265 | 18998 ft | 227 kts | 102° |
| 2026-04-22 01:35 | 19.01990 | -80.15643 | 18999 ft | 227 kts | 102° |
| 2026-04-22 01:35 | 19.01623 | -80.14042 | 18999 ft | 227 kts | 102° |
| 2026-04-22 01:36 | 19.01251 | -80.12419 | 18999 ft | 227 kts | 102° |
| 2026-04-22 01:36 | 19.00881 | -80.10797 | 18999 ft | 227 kts | 102° |
| 2026-04-22 01:36 | 19.00512 | -80.09177 | 18999 ft | 227 kts | 102° |
| 2026-04-22 01:36 | 19.00145 | -80.07556 | 19000 ft | 227 kts | 102° |
| 2026-04-22 01:37 | 18.99779 | -80.05937 | 19000 ft | 226 kts | 102° |
| 2026-04-22 01:37 | 18.99413 | -80.04319 | 19000 ft | 226 kts | 102° |
| 2026-04-22 01:37 | 18.99046 | -80.02701 | 19000 ft | 226 kts | 102° |
| 2026-04-22 01:37 | 18.98685 | -80.01105 | 19000 ft | 226 kts | 102° |
| 2026-04-22 01:38 | 18.98319 | -79.99489 | 19000 ft | 226 kts | 102° |
| 2026-04-22 01:38 | 18.97952 | -79.97873 | 19000 ft | 226 kts | 102° |
| 2026-04-22 01:38 | 18.97586 | -79.96255 | 19000 ft | 226 kts | 102° |
| 2026-04-22 01:38 | 18.97221 | -79.94640 | 18999 ft | 226 kts | 102° |
| 2026-04-22 01:39 | 18.96854 | -79.93025 | 18999 ft | 226 kts | 102° |
| 2026-04-22 01:39 | 18.96490 | -79.91420 | 19038 ft | 224 kts | 103° |
| 2026-04-22 01:39 | 18.96125 | -79.89814 | 19037 ft | 225 kts | 102° |
| 2026-04-22 01:39 | 18.95759 | -79.88204 | 19037 ft | 226 kts | 103° |
| 2026-04-22 01:40 | 18.95397 | -79.86613 | 19038 ft | 226 kts | 103° |
| 2026-04-22 01:40 | 18.95031 | -79.85001 | 19038 ft | 226 kts | 103° |
| 2026-04-22 01:40 | 18.94665 | -79.83390 | 19038 ft | 226 kts | 102° |
| 2026-04-22 01:40 | 18.94298 | -79.81777 | 19038 ft | 226 kts | 102° |
| 2026-04-22 01:41 | 18.93930 | -79.80163 | 19038 ft | 226 kts | 102° |
| 2026-04-22 01:41 | 18.93563 | -79.78547 | 19038 ft | 226 kts | 102° |
| 2026-04-22 01:41 | 18.93193 | -79.76929 | 19038 ft | 227 kts | 103° |
| 2026-04-22 01:41 | 18.92825 | -79.75311 | 19039 ft | 227 kts | 102° |
| 2026-04-22 01:42 | 18.92456 | -79.73691 | 19039 ft | 227 kts | 102° |
| 2026-04-22 01:42 | 18.92086 | -79.72071 | 19039 ft | 227 kts | 102° |
| 2026-04-22 01:42 | 18.91721 | -79.70472 | 19039 ft | 227 kts | 102° |
| 2026-04-22 01:42 | 18.91351 | -79.68850 | 19039 ft | 227 kts | 103° |
| 2026-04-22 01:43 | 18.90980 | -79.67230 | 19039 ft | 227 kts | 103° |
| 2026-04-22 01:43 | 18.90610 | -79.65612 | 19039 ft | 227 kts | 103° |
| 2026-04-22 01:43 | 18.90272 | -79.64135 | 19039 ft | 227 kts | 103° |
| 2026-04-22 01:43 | 18.89892 | -79.62473 | 19039 ft | 227 kts | 103° |
| 2026-04-22 01:44 | 18.89522 | -79.60855 | 19039 ft | 227 kts | 103° |
| 2026-04-22 01:44 | 18.89151 | -79.59232 | 19039 ft | 227 kts | 103° |
| 2026-04-22 01:44 | 18.88787 | -79.57637 | 19040 ft | 227 kts | 103° |
| 2026-04-22 01:44 | 18.88416 | -79.56020 | 19040 ft | 226 kts | 103° |
| 2026-04-22 01:45 | 18.88046 | -79.54405 | 19040 ft | 226 kts | 103° |
| 2026-04-22 01:45 | 18.87676 | -79.52790 | 19040 ft | 226 kts | 103° |
| 2026-04-22 01:45 | 18.87307 | -79.51184 | 19040 ft | 226 kts | 103° |
| 2026-04-22 01:45 | 18.86941 | -79.49590 | 19039 ft | 226 kts | 103° |
| 2026-04-22 01:46 | 18.86574 | -79.47989 | 19039 ft | 226 kts | 103° |
| 2026-04-22 01:46 | 18.86207 | -79.46388 | 19039 ft | 226 kts | 103° |
| 2026-04-22 01:46 | 18.85841 | -79.44798 | 19040 ft | 226 kts | 103° |
| 2026-04-22 01:46 | 18.85471 | -79.43187 | 19039 ft | 226 kts | 103° |
| 2026-04-22 01:47 | 18.85102 | -79.41582 | 19040 ft | 226 kts | 103° |
| 2026-04-22 01:47 | 18.84730 | -79.39964 | 19040 ft | 226 kts | 103° |
| 2026-04-22 01:47 | 18.84361 | -79.38354 | 19040 ft | 226 kts | 103° |
| 2026-04-22 01:47 | 18.83990 | -79.36743 | 19040 ft | 226 kts | 103° |
| 2026-04-22 01:48 | 18.83620 | -79.35131 | 19040 ft | 226 kts | 103° |
| 2026-04-22 01:48 | 18.83255 | -79.33542 | 19039 ft | 226 kts | 103° |
| 2026-04-22 01:48 | 18.82883 | -79.31929 | 19039 ft | 226 kts | 103° |
| 2026-04-22 01:48 | 18.82512 | -79.30313 | 19039 ft | 226 kts | 103° |
| 2026-04-22 01:49 | 18.82140 | -79.28698 | 19039 ft | 226 kts | 103° |
| 2026-04-22 01:49 | 18.81768 | -79.27084 | 19039 ft | 226 kts | 103° |
| 2026-04-22 01:49 | 18.81395 | -79.25471 | 19039 ft | 226 kts | 103° |
| 2026-04-22 01:49 | 18.81021 | -79.23856 | 19039 ft | 227 kts | 103° |
| 2026-04-22 01:50 | 18.80649 | -79.22242 | 19040 ft | 226 kts | 103° |
| 2026-04-22 01:50 | 18.80277 | -79.20629 | 19040 ft | 226 kts | 103° |
| 2026-04-22 01:50 | 18.79910 | -79.19040 | 19040 ft | 226 kts | 103° |
| 2026-04-22 01:50 | 18.79538 | -79.17430 | 19040 ft | 226 kts | 103° |
| 2026-04-22 01:51 | 18.79167 | -79.15821 | 19040 ft | 226 kts | 103° |
| 2026-04-22 01:51 | 18.78795 | -79.14211 | 19040 ft | 226 kts | 103° |
| 2026-04-22 01:51 | 18.78423 | -79.12602 | 19039 ft | 225 kts | 103° |
| 2026-04-22 01:51 | 18.78051 | -79.10996 | 19039 ft | 225 kts | 103° |
| 2026-04-22 01:52 | 18.77679 | -79.09388 | 19039 ft | 225 kts | 103° |
| 2026-04-22 01:52 | 18.77306 | -79.07781 | 19039 ft | 226 kts | 103° |
| 2026-04-22 01:52 | 18.76933 | -79.06173 | 19039 ft | 225 kts | 103° |
| 2026-04-22 01:52 | 18.76566 | -79.04588 | 19039 ft | 225 kts | 103° |
| 2026-04-22 01:53 | 18.76193 | -79.02985 | 19039 ft | 225 kts | 103° |
| 2026-04-22 01:53 | 18.75822 | -79.01379 | 19039 ft | 225 kts | 103° |
| 2026-04-22 01:53 | 18.75449 | -78.99773 | 19039 ft | 225 kts | 103° |
| 2026-04-22 01:53 | 18.75076 | -78.98170 | 19039 ft | 225 kts | 103° |
| 2026-04-22 01:54 | 18.74701 | -78.96563 | 19039 ft | 225 kts | 103° |
| 2026-04-22 01:54 | 18.74328 | -78.94957 | 19039 ft | 225 kts | 103° |
| 2026-04-22 01:54 | 18.73955 | -78.93352 | 19039 ft | 225 kts | 103° |
| 2026-04-22 01:54 | 18.73582 | -78.91748 | 19039 ft | 225 kts | 103° |
| 2026-04-22 01:55 | 18.73214 | -78.90167 | 19038 ft | 225 kts | 103° |
| 2026-04-22 01:55 | 18.72841 | -78.88564 | 19038 ft | 225 kts | 103° |
| 2026-04-22 01:55 | 18.72488 | -78.87055 | 19038 ft | 225 kts | 103° |
| 2026-04-22 01:55 | 18.72113 | -78.85450 | 19039 ft | 225 kts | 103° |
| 2026-04-22 01:56 | 18.71738 | -78.83845 | 19039 ft | 225 kts | 103° |
| 2026-04-22 01:56 | 18.71364 | -78.82240 | 19039 ft | 225 kts | 103° |
| 2026-04-22 01:56 | 18.70990 | -78.80635 | 19039 ft | 225 kts | 103° |
| 2026-04-22 01:56 | 18.70617 | -78.79034 | 19039 ft | 225 kts | 103° |
| 2026-04-22 01:57 | 18.70242 | -78.77430 | 19039 ft | 225 kts | 103° |
| 2026-04-22 01:57 | 18.69872 | -78.75844 | 19039 ft | 226 kts | 103° |
| 2026-04-22 01:57 | 18.69495 | -78.74237 | 19033 ft | 226 kts | 103° |
| 2026-04-22 01:57 | 18.69119 | -78.72632 | 19033 ft | 225 kts | 103° |
| 2026-04-22 01:58 | 18.68743 | -78.71026 | 19033 ft | 225 kts | 103° |
| 2026-04-22 01:58 | 18.68368 | -78.69425 | 19033 ft | 225 kts | 103° |
| 2026-04-22 01:58 | 18.67993 | -78.67822 | 19033 ft | 225 kts | 103° |
| 2026-04-22 01:58 | 18.67618 | -78.66219 | 19033 ft | 225 kts | 103° |
| 2026-04-22 01:59 | 18.67243 | -78.64620 | 19032 ft | 225 kts | 103° |
| 2026-04-22 01:59 | 18.66866 | -78.63017 | 19032 ft | 225 kts | 103° |
| 2026-04-22 01:59 | 18.66488 | -78.61417 | 19032 ft | 225 kts | 103° |
| 2026-04-22 01:59 | 18.66118 | -78.59840 | 19032 ft | 225 kts | 103° |
| 2026-04-22 02:00 | 18.65743 | -78.58241 | 19031 ft | 225 kts | 103° |
| 2026-04-22 02:00 | 18.65373 | -78.56660 | 19031 ft | 225 kts | 103° |
| 2026-04-22 02:00 | 18.64998 | -78.55063 | 19031 ft | 225 kts | 103° |
| 2026-04-22 02:00 | 18.64622 | -78.53465 | 19031 ft | 225 kts | 103° |
| 2026-04-22 02:01 | 18.64246 | -78.51865 | 19032 ft | 225 kts | 103° |
| 2026-04-22 02:01 | 18.63870 | -78.50267 | 19032 ft | 224 kts | 103° |
| 2026-04-22 02:01 | 18.63493 | -78.48670 | 19032 ft | 224 kts | 103° |
| 2026-04-22 02:01 | 18.63121 | -78.47094 | 19031 ft | 224 kts | 103° |
| 2026-04-22 02:02 | 18.62746 | -78.45498 | 19031 ft | 224 kts | 103° |
| 2026-04-22 02:02 | 18.62370 | -78.43900 | 19032 ft | 225 kts | 103° |
| 2026-04-22 02:02 | 18.61993 | -78.42302 | 19032 ft | 225 kts | 103° |
| 2026-04-22 02:02 | 18.61616 | -78.40705 | 19032 ft | 225 kts | 103° |
| 2026-04-22 02:03 | 18.61238 | -78.39107 | 19031 ft | 225 kts | 103° |
| 2026-04-22 02:03 | 18.60861 | -78.37510 | 19031 ft | 225 kts | 103° |
| 2026-04-22 02:03 | 18.60484 | -78.35913 | 19031 ft | 225 kts | 103° |
| 2026-04-22 02:03 | 18.60107 | -78.34316 | 19031 ft | 224 kts | 103° |
| 2026-04-22 02:04 | 18.59361 | -78.31163 | 19031 ft | 224 kts | 103° |
| 2026-04-22 02:04 | 18.58985 | -78.29574 | 19028 ft | 223 kts | 103° |
| 2026-04-22 02:04 | 18.58608 | -78.27983 | 19024 ft | 223 kts | 103° |
| 2026-04-22 02:05 | 18.58232 | -78.26394 | 19023 ft | 223 kts | 103° |
| 2026-04-22 02:05 | 18.57857 | -78.24807 | 19023 ft | 223 kts | 103° |
| 2026-04-22 02:05 | 18.57482 | -78.23222 | 19038 ft | 223 kts | 103° |
| 2026-04-22 02:05 | 18.57107 | -78.21639 | 19038 ft | 223 kts | 103° |
| 2026-04-22 02:06 | 18.56732 | -78.20054 | 19038 ft | 223 kts | 103° |
| 2026-04-22 02:06 | 18.56355 | -78.18468 | 19038 ft | 223 kts | 103° |
| 2026-04-22 02:06 | 18.55985 | -78.16906 | 19038 ft | 223 kts | 103° |
| 2026-04-22 02:06 | 18.55608 | -78.15320 | 19038 ft | 223 kts | 103° |
| 2026-04-22 02:07 | 18.55231 | -78.13736 | 19038 ft | 223 kts | 103° |
| 2026-04-22 02:07 | 18.54855 | -78.12151 | 19038 ft | 223 kts | 103° |
| 2026-04-22 02:07 | 18.54477 | -78.10567 | 19038 ft | 223 kts | 103° |
| 2026-04-22 02:07 | 18.54099 | -78.08985 | 19037 ft | 223 kts | 103° |
| 2026-04-22 02:08 | 18.53723 | -78.07403 | 19037 ft | 223 kts | 103° |
| 2026-04-22 02:08 | 18.53347 | -78.05820 | 19037 ft | 223 kts | 103° |
| 2026-04-22 02:08 | 18.52977 | -78.04259 | 19036 ft | 222 kts | 103° |
| 2026-04-22 02:08 | 18.52600 | -78.02678 | 19036 ft | 222 kts | 103° |
| 2026-04-22 02:09 | 18.52223 | -78.01099 | 19036 ft | 222 kts | 103° |
| 2026-04-22 02:09 | 18.51846 | -77.99519 | 19036 ft | 223 kts | 103° |
| 2026-04-22 02:09 | 18.51489 | -77.98017 | 19036 ft | 223 kts | 103° |
| 2026-04-22 02:09 | 18.51112 | -77.96437 | 19036 ft | 222 kts | 103° |
| 2026-04-22 02:10 | 18.50734 | -77.94856 | 19036 ft | 222 kts | 103° |
| 2026-04-22 02:10 | 18.50350 | -77.93278 | 19035 ft | 222 kts | 105° |
| 2026-04-22 02:10 | 18.49824 | -77.91773 | 19035 ft | 222 kts | 115° |
| 2026-04-22 02:10 | 18.49112 | -77.90324 | 19037 ft | 223 kts | 118° |
| 2026-04-22 02:11 | 18.48390 | -77.88870 | 19038 ft | 225 kts | 117° |
| 2026-04-22 02:11 | 18.47672 | -77.87406 | 19040 ft | 225 kts | 117° |
| 2026-04-22 02:11 | 18.46953 | -77.85938 | 19040 ft | 226 kts | 117° |
| 2026-04-22 02:11 | 18.46231 | -77.84468 | 19042 ft | 226 kts | 117° |
| 2026-04-22 02:12 | 18.45508 | -77.82999 | 19042 ft | 226 kts | 117° |
| 2026-04-22 02:12 | 18.44785 | -77.81529 | 19043 ft | 226 kts | 117° |
| 2026-04-22 02:12 | 18.44069 | -77.80077 | 19044 ft | 227 kts | 117° |
| 2026-04-22 02:12 | 18.43339 | -77.78601 | 19044 ft | 227 kts | 117° |
| 2026-04-22 02:13 | 18.42610 | -77.77127 | 19043 ft | 227 kts | 117° |
| 2026-04-22 02:13 | 18.41883 | -77.75656 | 19044 ft | 227 kts | 117° |
| 2026-04-22 02:13 | 18.41154 | -77.74184 | 19044 ft | 227 kts | 118° |
| 2026-04-22 02:13 | 18.40424 | -77.72709 | 19045 ft | 227 kts | 118° |
| 2026-04-22 02:14 | 18.39692 | -77.71233 | 19044 ft | 227 kts | 117° |
| 2026-04-22 02:14 | 18.38962 | -77.69757 | 19044 ft | 227 kts | 118° |
| 2026-04-22 02:14 | 18.38262 | -77.68343 | 19044 ft | 227 kts | 118° |
| 2026-04-22 02:14 | 18.37522 | -77.66849 | 19043 ft | 227 kts | 117° |
| 2026-04-22 02:15 | 18.36815 | -77.65422 | 19045 ft | 227 kts | 118° |
| 2026-04-22 02:15 | 18.36078 | -77.63935 | 19045 ft | 227 kts | 118° |
| 2026-04-22 02:15 | 18.35345 | -77.62456 | 19044 ft | 228 kts | 118° |
| 2026-04-22 02:15 | 18.34615 | -77.60981 | 19046 ft | 227 kts | 118° |
| 2026-04-22 02:16 | 18.33883 | -77.59506 | 19046 ft | 227 kts | 118° |
| 2026-04-22 02:16 | 18.33150 | -77.58030 | 19045 ft | 228 kts | 118° |
| 2026-04-22 02:16 | 18.32418 | -77.56554 | 19045 ft | 228 kts | 118° |
| 2026-04-22 02:16 | 18.31685 | -77.55077 | 19044 ft | 227 kts | 118° |
| 2026-04-22 02:17 | 18.30963 | -77.53623 | 19040 ft | 227 kts | 118° |
| 2026-04-22 02:17 | 18.30232 | -77.52148 | 19043 ft | 227 kts | 118° |
| 2026-04-22 02:17 | 18.29502 | -77.50678 | 19045 ft | 227 kts | 118° |
| 2026-04-22 02:17 | 18.28786 | -77.49237 | 19044 ft | 227 kts | 118° |
| 2026-04-22 02:18 | 18.28053 | -77.47763 | 19043 ft | 228 kts | 118° |
| 2026-04-22 02:18 | 18.27318 | -77.46289 | 19043 ft | 228 kts | 118° |
| 2026-04-22 02:18 | 18.26584 | -77.44812 | 19044 ft | 228 kts | 118° |
| 2026-04-22 02:18 | 18.25867 | -77.43369 | 19042 ft | 228 kts | 118° |
| 2026-04-22 02:19 | 18.25123 | -77.41874 | 19044 ft | 228 kts | 118° |
| 2026-04-22 02:19 | 18.24388 | -77.40395 | 19044 ft | 228 kts | 118° |
| 2026-04-22 02:19 | 18.23651 | -77.38916 | 19044 ft | 226 kts | 118° |
| 2026-04-22 02:19 | 18.22943 | -77.37515 | 19036 ft | 214 kts | 118° |
| 2026-04-22 02:20 | 18.22268 | -77.36167 | 19021 ft | 204 kts | 118° |
| 2026-04-22 02:20 | 18.21576 | -77.34788 | 18467 ft | 221 kts | 118° |
| 2026-04-22 02:20 | 18.20835 | -77.33322 | 17904 ft | 232 kts | 118° |
| 2026-04-22 02:20 | 18.20073 | -77.31808 | 17353 ft | 238 kts | 118° |
| 2026-04-22 02:21 | 18.19306 | -77.30273 | 16802 ft | 243 kts | 118° |
| 2026-04-22 02:21 | 18.18519 | -77.28695 | 16242 ft | 245 kts | 117° |
| 2026-04-22 02:21 | 18.17655 | -77.27148 | 15682 ft | 246 kts | 124° |
| 2026-04-22 02:21 | 18.16697 | -77.25662 | 15110 ft | 246 kts | 123° |
| 2026-04-22 02:22 | 18.15767 | -77.24157 | 14541 ft | 244 kts | 123° |
| 2026-04-22 02:22 | 18.14851 | -77.22675 | 13969 ft | 240 kts | 123° |
| 2026-04-22 02:22 | 18.13948 | -77.21214 | 13398 ft | 237 kts | 123° |
| 2026-04-22 02:22 | 18.13073 | -77.19805 | 12839 ft | 234 kts | 123° |
| 2026-04-22 02:23 | 18.12164 | -77.18345 | 12253 ft | 232 kts | 123° |
| 2026-04-22 02:23 | 18.11286 | -77.16936 | 11681 ft | 229 kts | 122° |
| 2026-04-22 02:23 | 18.10430 | -77.15561 | 11123 ft | 227 kts | 122° |
| 2026-04-22 02:23 | 18.09570 | -77.14183 | 10545 ft | 225 kts | 122° |
| 2026-04-22 02:24 | 18.08714 | -77.12812 | 9971 ft | 223 kts | 121° |
| 2026-04-22 02:24 | 18.07873 | -77.11449 | 9397 ft | 221 kts | 119° |
| 2026-04-22 02:24 | 18.07183 | -77.10029 | 8819 ft | 216 kts | 109° |
| 2026-04-22 02:24 | 18.06578 | -77.08592 | 8250 ft | 214 kts | 111° |
| 2026-04-22 02:25 | 18.05953 | -77.07181 | 7679 ft | 212 kts | 111° |
| 2026-04-22 02:25 | 18.05331 | -77.05778 | 7106 ft | 211 kts | 111° |
| 2026-04-22 02:25 | 18.04720 | -77.04388 | 6530 ft | 208 kts | 111° |
| 2026-04-22 02:25 | 18.04124 | -77.03029 | 5970 ft | 207 kts | 111° |
| 2026-04-22 02:26 | 18.03521 | -77.01662 | 5397 ft | 206 kts | 111° |
| 2026-04-22 02:26 | 18.02922 | -77.00298 | 4825 ft | 205 kts | 111° |
| 2026-04-22 02:26 | 18.02329 | -76.98942 | 4252 ft | 204 kts | 112° |
| 2026-04-22 02:26 | 18.01735 | -76.97591 | 3681 ft | 203 kts | 112° |
| 2026-04-22 02:27 | 18.01144 | -76.96248 | 3109 ft | 202 kts | 112° |
| 2026-04-22 02:27 | 18.00558 | -76.94913 | 2534 ft | 201 kts | 112° |
| 2026-04-22 02:27 | 17.99983 | -76.93596 | 2152 ft | 190 kts | 112° |
| 2026-04-22 02:27 | 17.99470 | -76.92424 | 2125 ft | 169 kts | 112° |
| 2026-04-22 02:28 | 17.98985 | -76.91368 | 2116 ft | 153 kts | 113° |
| 2026-04-22 02:28 | 17.98544 | -76.90393 | 2113 ft | 143 kts | 112° |
| 2026-04-22 02:28 | 17.98139 | -76.89473 | 2096 ft | 136 kts | 111° |
| 2026-04-22 02:28 | 17.97746 | -76.88567 | 1893 ft | 136 kts | 112° |
| 2026-04-22 02:29 | 17.97328 | -76.87696 | 1745 ft | 132 kts | 113° |
| 2026-04-22 02:29 | 17.96913 | -76.86841 | 1603 ft | 130 kts | 114° |
| 2026-04-22 02:29 | 17.96520 | -76.86009 | 1487 ft | 121 kts | 111° |
| 2026-04-22 02:29 | 17.96184 | -76.85215 | 1247 ft | 117 kts | 109° |
| 2026-04-22 02:30 | 17.95913 | -76.84431 | 1039 ft | 115 kts | 106° |
| 2026-04-22 02:30 | 17.95586 | -76.83665 | 804 ft | 116 kts | 111° |
| 2026-04-22 02:30 | 17.95263 | -76.82910 | 658 ft | 109 kts | 110° |
| 2026-04-22 02:30 | 17.94954 | -76.82209 | 555 ft | 98 kts | 111° |
| 2026-04-22 02:31 | 17.94688 | -76.81578 | 370 ft | 96 kts | 109° |
| 2026-04-22 02:31 | 17.94414 | -76.80953 | 256 ft | 94 kts | 110° |
| 2026-04-22 02:31 | 17.94202 | -76.80368 | 140 ft | 93 kts | 112° |
| 2026-04-22 02:31 | 17.93949 | -76.79746 | 31 ft | 90 kts | 108° |
| 2026-04-22 02:32 | 17.93740 | -76.79201 | 12 ft | 72 kts | 109° |
| 2026-04-22 02:32 | 17.93584 | -76.78788 | 8 ft | 51 kts | 115° |
| 2026-04-22 02:32 | 17.93464 | -76.78488 | 8 ft | 42 kts | 112° |
| 2026-04-22 02:32 | 17.93402 | -76.78203 | 10 ft | 37 kts | 86° |
| 2026-04-22 02:33 | 17.93468 | -76.77962 | 8 ft | 32 kts | 55° |
| 2026-04-22 02:33 | 17.93621 | -76.77816 | 8 ft | 27 kts | 39° |
| 2026-04-22 02:33 | 17.93664 | -76.77795 | 8 ft | 0 kts | 290° |